createdAt,value
2023-02-13T00:00:05.880Z,0.00
2023-02-13T00:02:34.799Z,0.17
2023-02-13T00:05:01.524Z,0.10
2023-02-13T00:07:28.262Z,0.00
2023-02-13T00:09:54.960Z,0.00
2023-02-13T00:12:21.791Z,0.00
2023-02-13T00:14:48.468Z,0.00
2023-02-13T00:17:15.227Z,0.00
2023-02-13T00:19:41.896Z,0.10
2023-02-13T00:22:09.037Z,0.00
2023-02-13T00:24:35.829Z,0.00
2023-02-13T00:27:02.554Z,0.00
2023-02-13T00:29:29.193Z,0.00
2023-02-13T00:31:56.039Z,0.32
2023-02-13T00:34:22.924Z,1.38
2023-02-13T00:36:49.894Z,0.38
2023-02-13T00:39:16.657Z,0.10
2023-02-13T00:41:43.436Z,0.28
2023-02-13T00:44:10.521Z,0.00
2023-02-13T00:46:38.774Z,0.20
2023-02-13T00:49:06.139Z,0.00
2023-02-13T00:51:34.567Z,0.45
2023-02-13T00:54:01.447Z,0.20
2023-02-13T00:56:28.385Z,0.63
2023-02-13T00:58:55.059Z,0.00
2023-02-13T01:01:24.237Z,0.10
2023-02-13T01:03:51.028Z,0.00
2023-02-13T01:06:17.815Z,0.00
2023-02-13T01:08:44.496Z,0.28
2023-02-13T01:11:11.295Z,0.00
2023-02-13T01:13:38.026Z,2.65
2023-02-13T01:16:05.261Z,0.00
2023-02-13T01:18:32.037Z,0.10
2023-02-13T01:21:03.210Z,0.00
2023-02-13T01:23:34.550Z,0.15
2023-02-13T01:26:04.144Z,0.85
2023-02-13T01:28:30.978Z,0.20
2023-02-13T01:30:58.896Z,0.08
2023-02-13T01:33:29.242Z,0.20
2023-02-13T01:35:56.229Z,1.10
2023-02-13T01:38:22.924Z,1.23
2023-02-13T01:40:52.690Z,0.50
2023-02-13T01:43:20.112Z,0.57
2023-02-13T01:45:49.011Z,1.85
2023-02-13T01:48:20.380Z,0.13
2023-02-13T01:50:56.936Z,0.00
2023-02-13T01:53:32.301Z,0.05
2023-02-13T01:56:05.990Z,0.73
2023-02-13T01:58:34.483Z,0.00
2023-02-13T02:01:02.179Z,0.00
2023-02-13T02:03:34.894Z,0.00
2023-02-13T02:06:08.369Z,0.00
2023-02-13T02:08:36.380Z,0.00
2023-02-13T02:11:11.213Z,0.10
2023-02-13T02:13:38.083Z,0.00
2023-02-13T02:16:08.562Z,0.17
2023-02-13T02:18:35.507Z,0.30
2023-02-13T02:21:39.318Z,1.42
2023-02-13T02:24:38.899Z,0.00
2023-02-13T02:27:31.633Z,0.28
2023-02-13T02:30:36.952Z,0.00
2023-02-13T02:33:34.288Z,0.00
2023-02-13T02:36:20.284Z,0.47
2023-02-13T02:39:08.791Z,0.00
2023-02-13T02:41:51.116Z,0.00
2023-02-13T02:44:48.104Z,0.00
2023-02-13T02:47:54.037Z,0.00
2023-02-13T02:50:25.436Z,0.00
2023-02-13T02:53:21.068Z,0.00
2023-02-13T02:55:56.797Z,0.00
2023-02-13T02:58:52.494Z,0.00
2023-02-13T03:01:41.594Z,0.00
2023-02-13T03:04:35.515Z,0.00
2023-02-13T03:07:07.441Z,0.05
2023-02-13T03:09:58.609Z,0.10
2023-02-13T03:12:49.556Z,0.00
2023-02-13T03:18:02.068Z,0.20
2023-02-13T03:21:14.483Z,0.30
2023-02-13T03:24:11.927Z,0.10
2023-02-13T03:26:52.485Z,0.35
2023-02-13T03:30:22.652Z,0.10
2023-02-13T03:33:18.570Z,0.00
2023-02-13T03:36:08.824Z,0.17
2023-02-13T03:38:54.695Z,0.00
2023-02-13T03:41:35.748Z,0.08
2023-02-13T03:44:08.673Z,0.10
2023-02-13T03:46:39.776Z,0.00
2023-02-13T03:49:26.153Z,0.00
2023-02-13T03:52:05.357Z,0.00
2023-02-13T03:55:18.157Z,0.10
2023-02-13T03:58:04.510Z,0.00
2023-02-13T04:00:36.378Z,0.00
2023-02-13T04:03:29.365Z,0.00
2023-02-13T04:06:35.938Z,0.57
2023-02-13T04:09:02.768Z,0.10
2023-02-13T04:11:38.948Z,0.00
2023-02-13T04:14:18.172Z,0.05
2023-02-13T04:16:50.341Z,0.00
2023-02-13T04:19:17.402Z,0.03
2023-02-13T04:21:44.117Z,0.30
2023-02-13T04:24:10.942Z,0.43
2023-02-13T04:26:40.526Z,0.63
2023-02-13T04:29:07.617Z,0.00
2023-02-13T04:31:34.494Z,0.00
2023-02-13T04:34:01.565Z,0.00
2023-02-13T04:36:28.376Z,0.00
2023-02-13T04:38:55.232Z,0.10
2023-02-13T04:41:21.918Z,0.38
2023-02-13T04:43:49.316Z,0.57
2023-02-13T04:46:16.097Z,0.10
2023-02-13T04:48:42.940Z,0.30
2023-02-13T04:51:09.655Z,0.00
2023-02-13T04:53:36.504Z,0.10
2023-02-13T04:56:03.200Z,0.00
2023-02-13T04:58:29.924Z,0.32
2023-02-13T05:00:56.959Z,0.00
2023-02-13T05:03:23.888Z,0.00
2023-02-13T05:05:50.611Z,0.10
2023-02-13T05:08:17.586Z,0.17
2023-02-13T05:10:44.285Z,0.00
2023-02-13T05:13:11.525Z,0.00
2023-02-13T05:15:38.303Z,0.20
2023-02-13T05:18:05.200Z,0.03
2023-02-13T05:20:31.911Z,0.00
2023-02-13T05:23:17.789Z,0.10
2023-02-13T05:25:44.510Z,0.35
2023-02-13T05:28:30.103Z,0.00
2023-02-13T05:30:57.784Z,0.00
2023-02-13T05:33:24.646Z,0.10
2023-02-13T05:35:51.394Z,0.10
2023-02-13T05:38:18.142Z,0.00
2023-02-13T05:40:44.937Z,0.10
2023-02-13T05:43:11.627Z,0.10
2023-02-13T05:45:38.324Z,0.15
2023-02-13T05:48:05.216Z,0.00
2023-02-13T05:50:32.039Z,0.00
2023-02-13T05:52:58.669Z,0.08
2023-02-13T05:55:25.498Z,0.63
2023-02-13T05:57:56.687Z,0.00
2023-02-13T06:00:23.742Z,0.00
2023-02-13T06:02:50.544Z,0.10
2023-02-13T06:05:17.473Z,0.00
2023-02-13T06:07:44.147Z,0.00
2023-02-13T06:10:11.253Z,0.10
2023-02-13T06:12:38.190Z,0.00
2023-02-13T06:15:05.699Z,0.00
2023-02-13T06:17:32.376Z,0.93
2023-02-13T06:19:59.172Z,0.00
2023-02-13T06:22:25.841Z,0.00
2023-02-13T06:24:52.596Z,0.00
2023-02-13T06:27:19.392Z,0.00
2023-02-13T06:29:46.198Z,0.00
2023-02-13T06:32:12.866Z,0.00
2023-02-13T06:34:39.603Z,0.00
2023-02-13T06:37:06.252Z,0.43
2023-02-13T06:39:32.987Z,0.00
2023-02-13T06:41:59.685Z,0.05
2023-02-13T06:44:26.489Z,0.00
2023-02-13T06:46:53.292Z,0.00
2023-02-13T06:49:20.130Z,0.00
2023-02-13T06:51:46.793Z,0.40
2023-02-13T06:54:13.546Z,0.00
2023-02-13T06:56:40.245Z,0.00
2023-02-13T06:59:07.182Z,0.98
2023-02-13T07:01:33.818Z,0.00
2023-02-13T07:04:01.012Z,0.00
2023-02-13T07:06:27.661Z,0.00
2023-02-13T07:08:56.022Z,0.03
2023-02-13T07:11:24.286Z,3.50
2023-02-13T07:26:23.741Z,2.60
2023-02-13T07:28:56.943Z,4.97
2023-02-13T07:31:35.942Z,3.75
2023-02-13T07:34:02.783Z,3.92
2023-02-13T07:36:29.536Z,3.30
2023-02-13T07:38:56.366Z,4.53
2023-02-13T07:44:18.667Z,3.20
2023-02-13T07:46:45.500Z,2.75
2023-02-13T07:49:12.157Z,3.13
2023-02-13T07:51:39.355Z,4.60
2023-02-13T07:54:06.636Z,3.97
2023-02-13T07:56:33.588Z,5.72
2023-02-13T07:59:00.335Z,5.88
2023-02-13T08:01:27.376Z,3.38
2023-02-13T08:06:54.070Z,7.07
2023-02-13T08:09:41.029Z,5.45
2023-02-13T08:12:08.843Z,10.85
2023-02-13T08:14:35.709Z,6.28
2023-02-13T08:17:02.703Z,4.90
2023-02-13T08:19:29.797Z,8.02
2023-02-13T08:21:56.783Z,4.30
2023-02-13T08:24:23.768Z,4.45
2023-02-13T08:26:50.602Z,7.07
2023-02-13T08:29:17.461Z,6.32
2023-02-13T08:31:44.281Z,4.90
2023-02-13T08:34:11.493Z,5.55
2023-02-13T08:36:38.618Z,6.10
2023-02-13T08:39:05.446Z,4.97
2023-02-13T08:41:32.250Z,6.93
2023-02-13T08:43:58.883Z,5.88
2023-02-13T08:46:25.681Z,7.20
2023-02-13T08:48:52.365Z,5.30
2023-02-13T08:51:19.150Z,5.80
2023-02-13T08:53:45.909Z,6.43
2023-02-13T08:56:12.672Z,8.73
2023-02-13T08:58:39.500Z,8.00
2023-02-13T09:01:07.845Z,11.35
2023-02-13T09:03:35.199Z,8.98
2023-02-13T09:06:03.104Z,6.50
2023-02-13T09:08:30.351Z,9.23
2023-02-13T09:11:02.156Z,8.10
2023-02-13T09:13:30.065Z,8.07
2023-02-13T09:16:07.180Z,8.10
2023-02-13T09:18:35.183Z,10.65
2023-02-13T09:21:04.182Z,8.00
2023-02-13T09:23:32.959Z,7.88
2023-02-13T09:26:01.611Z,6.85
2023-02-13T09:28:30.224Z,8.40
2023-02-13T09:30:57.189Z,12.32
2023-02-13T09:33:24.946Z,9.05
2023-02-13T09:35:52.208Z,10.15
2023-02-13T09:47:28.405Z,15.13
2023-02-13T09:50:06.831Z,13.55
2023-02-13T10:04:32.054Z,19.70
2023-02-13T10:07:12.474Z,28.65
2023-02-13T10:09:40.641Z,19.70
2023-02-13T10:12:16.105Z,17.67
2023-02-13T10:14:48.967Z,11.07
2023-02-13T10:17:24.179Z,15.60
2023-02-13T10:20:02.092Z,17.10
2023-02-13T10:22:42.937Z,15.85
2023-02-13T10:27:43.398Z,17.23
2023-02-13T10:30:30.419Z,15.90
2023-02-13T10:33:19.203Z,17.65
2023-02-13T10:35:50.718Z,16.13
2023-02-13T10:38:20.696Z,20.27
2023-02-13T10:41:15.423Z,19.52
2023-02-13T10:44:15.356Z,18.83
2023-02-13T10:46:53.982Z,16.90
2023-02-13T10:49:36.137Z,13.50
2023-02-13T10:52:18.209Z,13.43
2023-02-13T10:55:09.342Z,13.90
2023-02-13T10:57:54.325Z,14.23
2023-02-13T11:00:37.919Z,13.70
2023-02-13T11:03:04.931Z,10.50
2023-02-13T11:05:39.493Z,14.57
2023-02-13T11:08:17.756Z,10.55
2023-02-13T11:10:44.503Z,12.23
2023-02-13T11:13:18.582Z,13.80
2023-02-13T11:16:02.580Z,11.80
2023-02-13T11:18:34.134Z,13.57
2023-02-13T11:21:08.898Z,14.05
2023-02-13T11:23:45.767Z,11.95
2023-02-13T11:26:15.402Z,12.88
2023-02-13T11:28:50.796Z,14.82
2023-02-13T11:31:34.122Z,13.05
2023-02-13T11:34:24.173Z,11.18
2023-02-13T11:37:07.786Z,13.73
2023-02-13T11:39:34.534Z,11.32
2023-02-13T11:42:01.198Z,13.75
2023-02-13T11:44:31.498Z,13.50
2023-02-13T11:47:00.332Z,13.50
2023-02-13T11:49:29.912Z,12.02
2023-02-13T11:51:57.901Z,9.98
2023-02-13T11:54:29.328Z,11.88
2023-02-13T11:57:06.394Z,9.80
2023-02-13T11:59:40.773Z,9.13
2023-02-13T12:02:22.566Z,10.85
2023-02-13T12:04:52.004Z,10.55
2023-02-13T12:07:30.808Z,7.43
2023-02-13T12:10:02.367Z,10.02
2023-02-13T12:12:34.292Z,7.35
2023-02-13T12:15:04.253Z,7.32
2023-02-13T12:17:32.826Z,8.70
2023-02-13T12:20:00.335Z,6.43
2023-02-13T12:22:52.605Z,8.38
2023-02-13T12:25:42.933Z,10.57
2023-02-13T12:28:16.119Z,8.35
2023-02-13T12:31:11.578Z,8.18
2023-02-13T12:34:01.058Z,9.07
2023-02-13T12:36:34.747Z,5.70
2023-02-13T12:39:08.138Z,5.10
2023-02-13T12:42:26.932Z,6.97
2023-02-13T12:45:16.708Z,5.75
2023-02-13T12:48:11.750Z,4.38
2023-02-13T12:50:47.149Z,5.70
2023-02-13T12:53:25.854Z,6.90
2023-02-13T12:56:06.723Z,8.73
2023-02-13T12:58:51.365Z,7.75
2023-02-13T13:01:43.055Z,5.88
2023-02-13T13:04:21.317Z,5.47
2023-02-13T13:07:27.030Z,6.55
2023-02-13T13:10:12.283Z,6.13
2023-02-13T13:12:48.244Z,6.38
2023-02-13T13:15:34.957Z,6.30
2023-02-13T13:18:17.460Z,8.48
2023-02-13T13:20:49.146Z,7.43
2023-02-13T13:23:22.312Z,7.13
2023-02-13T13:25:51.514Z,5.63
2023-02-13T13:28:21.455Z,5.18
2023-02-13T13:30:49.072Z,9.07
2023-02-13T13:33:18.356Z,9.40
2023-02-13T13:36:07.821Z,6.85
2023-02-13T13:38:43.546Z,9.07
2023-02-13T13:41:18.973Z,8.02
2023-02-13T13:44:10.733Z,7.13
2023-02-13T13:46:49.109Z,5.65
2023-02-13T13:49:44.360Z,6.70
2023-02-13T13:52:18.908Z,7.80
2023-02-13T13:54:51.413Z,6.03
2023-02-13T13:57:39.426Z,6.88
2023-02-13T14:00:09.051Z,8.35
2023-02-13T14:02:46.171Z,15.23
2023-02-13T14:05:26.691Z,5.43
2023-02-13T14:07:59.043Z,6.97
2023-02-13T14:10:25.738Z,6.18
2023-02-13T14:12:58.122Z,6.35
2023-02-13T14:15:34.430Z,7.38
2023-02-13T14:18:08.090Z,8.43
2023-02-13T14:20:44.242Z,6.57
2023-02-13T14:23:38.263Z,7.00
2023-02-13T14:26:17.389Z,6.18
2023-02-13T14:28:50.285Z,7.00
2023-02-13T14:31:23.124Z,6.18
2023-02-13T14:34:04.508Z,4.95
2023-02-13T14:36:33.762Z,5.50
2023-02-13T14:39:03.408Z,7.65
2023-02-13T14:41:43.650Z,6.28
2023-02-13T14:44:19.537Z,5.30
2023-02-13T14:46:49.023Z,5.00
2023-02-13T14:49:17.921Z,6.18
2023-02-13T14:51:47.581Z,8.30
2023-02-13T14:54:21.009Z,4.57
2023-02-13T14:56:50.333Z,5.28
2023-02-13T14:59:20.137Z,4.60
2023-02-13T15:01:52.709Z,5.32
2023-02-13T15:04:42.274Z,5.05
2023-02-13T15:07:16.280Z,7.47
2023-02-13T15:09:48.897Z,6.40
2023-02-13T15:12:35.938Z,4.60
2023-02-13T15:15:17.961Z,4.22
2023-02-13T15:17:44.823Z,4.75
2023-02-13T15:20:16.071Z,4.30
2023-02-13T15:22:46.663Z,4.50
2023-02-13T15:25:32.662Z,3.97
2023-02-13T15:28:00.601Z,4.97
2023-02-13T15:30:37.840Z,3.90
2023-02-13T15:33:17.818Z,7.82
2023-02-13T15:35:45.170Z,4.07
2023-02-13T15:38:36.445Z,4.65
2023-02-13T15:41:06.629Z,3.72
2023-02-13T15:43:44.232Z,3.97
2023-02-13T15:46:21.165Z,4.35
2023-02-13T15:48:48.157Z,5.93
2023-02-13T15:51:22.812Z,7.60
2023-02-13T15:53:54.876Z,9.55
2023-02-13T15:56:21.789Z,4.13
2023-02-13T15:58:49.604Z,19.35
2023-02-13T16:01:17.128Z,6.05
2023-02-13T16:03:49.567Z,3.30
2023-02-13T16:06:18.096Z,6.03
2023-02-13T16:08:55.098Z,9.48
2023-02-13T16:11:39.063Z,3.92
2023-02-13T16:14:17.958Z,3.60
2023-02-13T16:16:49.119Z,6.40
2023-02-13T16:19:41.963Z,3.60
2023-02-13T16:22:23.881Z,5.20
2023-02-13T16:24:52.810Z,7.30
2023-02-13T16:27:22.339Z,4.72
2023-02-13T16:29:55.366Z,4.65
2023-02-13T16:32:29.826Z,7.22
2023-02-13T16:34:57.290Z,4.85
2023-02-13T16:37:27.578Z,6.75
2023-02-13T16:39:54.447Z,4.93
2023-02-13T16:42:21.224Z,4.85
2023-02-13T16:44:48.070Z,4.22
2023-02-13T16:47:23.407Z,4.97
2023-02-13T16:49:55.648Z,4.97
2023-02-13T16:52:25.968Z,4.70
2023-02-13T16:54:55.861Z,6.60
2023-02-13T16:57:30.703Z,6.60
2023-02-13T17:00:02.531Z,5.15
2023-02-13T17:02:30.825Z,6.05
2023-02-13T17:05:09.733Z,7.07
2023-02-13T17:07:41.727Z,5.20
2023-02-13T17:10:17.719Z,5.47
2023-02-13T17:12:45.367Z,4.90
2023-02-13T17:15:13.801Z,4.07
2023-02-13T17:17:40.845Z,4.63
2023-02-13T17:20:08.695Z,0.40
2023-02-13T17:22:37.968Z,0.10
2023-02-13T17:25:09.934Z,1.00
2023-02-13T17:27:36.772Z,0.00
2023-02-13T17:30:04.477Z,0.55
2023-02-13T17:32:31.521Z,0.00
2023-02-13T17:34:58.226Z,0.43
2023-02-13T17:37:26.906Z,0.10
2023-02-13T17:39:54.716Z,0.00
2023-02-13T17:42:24.720Z,0.00
2023-02-13T17:44:52.037Z,0.30
2023-02-13T17:47:19.165Z,0.00
2023-02-13T17:49:47.624Z,0.10
2023-02-13T17:52:20.184Z,0.10
2023-02-13T17:54:47.937Z,0.10
2023-02-13T17:57:16.348Z,0.10
2023-02-13T17:59:43.428Z,0.73
2023-02-13T18:02:24.830Z,0.20
2023-02-13T18:04:51.704Z,0.30
2023-02-13T18:07:20.704Z,0.00
2023-02-13T18:09:47.756Z,0.15
2023-02-13T18:12:17.471Z,0.47
2023-02-13T18:14:44.253Z,0.00
2023-02-13T18:17:11.377Z,0.10
2023-02-13T18:19:39.111Z,0.20
2023-02-13T18:22:07.766Z,0.60
2023-02-13T18:24:36.181Z,0.95
2023-02-13T18:27:03.315Z,0.60
2023-02-13T18:29:30.308Z,0.10
2023-02-13T18:31:57.936Z,0.00
2023-02-13T18:34:25.124Z,0.43
2023-02-13T18:36:51.835Z,0.22
2023-02-13T18:39:18.661Z,0.00
2023-02-13T18:41:45.649Z,0.00
2023-02-13T18:44:20.091Z,0.00
2023-02-13T18:46:50.266Z,0.00
2023-02-13T18:49:17.008Z,0.43
2023-02-13T18:51:44.481Z,0.00
2023-02-13T18:54:11.501Z,0.00
2023-02-13T18:56:38.512Z,0.25
2023-02-13T18:59:06.733Z,0.10
2023-02-13T19:01:35.463Z,1.33
2023-02-13T19:04:03.026Z,0.30
2023-02-13T19:06:30.312Z,0.10
2023-02-13T19:08:57.689Z,0.00
2023-02-13T19:11:26.400Z,0.30
2023-02-13T19:14:00.613Z,0.00
2023-02-13T19:16:29.187Z,0.20
2023-02-13T19:18:57.725Z,0.13
2023-02-13T19:21:27.466Z,0.00
2023-02-13T19:23:54.517Z,0.00
2023-02-13T19:26:24.337Z,0.40
2023-02-13T19:28:51.665Z,0.00
2023-02-13T19:31:19.433Z,0.47
2023-02-13T19:33:46.711Z,0.10
2023-02-13T19:36:17.728Z,0.10
2023-02-13T19:38:46.194Z,0.00
2023-02-13T19:41:16.368Z,0.70
2023-02-13T19:43:50.698Z,0.03
2023-02-13T19:46:22.103Z,0.85
2023-02-13T19:48:49.129Z,0.25
2023-02-13T19:51:18.021Z,1.25
2023-02-13T19:53:45.401Z,0.13
2023-02-13T19:56:12.844Z,0.20
2023-02-13T19:58:42.761Z,0.03
2023-02-13T20:01:13.314Z,0.35
2023-02-13T20:03:41.109Z,0.10
2023-02-13T20:06:10.737Z,0.55
2023-02-13T20:08:37.510Z,0.00
2023-02-13T20:11:07.374Z,0.08
2023-02-13T20:13:34.379Z,0.30
2023-02-13T20:16:07.446Z,0.00
2023-02-13T20:18:35.362Z,0.40
2023-02-13T20:21:16.292Z,0.30
2023-02-13T20:23:43.762Z,0.30
2023-02-13T20:26:13.818Z,0.63
2023-02-13T20:28:42.585Z,1.20
2023-02-13T20:31:14.727Z,0.15
2023-02-13T20:33:42.054Z,0.73
2023-02-13T20:36:20.557Z,0.00
2023-02-13T20:38:47.948Z,0.05
2023-02-13T20:41:25.041Z,0.63
2023-02-13T20:43:52.205Z,0.10
2023-02-13T20:46:19.364Z,0.55
2023-02-13T20:48:50.173Z,4.40
2023-02-13T20:51:18.262Z,0.15
2023-02-13T20:53:45.706Z,0.63
2023-02-13T20:56:18.145Z,0.20
2023-02-13T20:58:46.162Z,0.15
2023-02-13T21:01:17.981Z,0.30
2023-02-13T21:03:45.541Z,0.10
2023-02-13T21:06:12.268Z,0.20
2023-02-13T21:08:39.459Z,0.00
2023-02-13T21:11:07.601Z,0.08
2023-02-13T21:13:35.398Z,1.48
2023-02-13T21:16:07.356Z,0.20
2023-02-13T21:18:34.831Z,0.03
2023-02-13T21:21:02.065Z,0.00
2023-02-13T21:23:28.877Z,0.25
2023-02-13T21:25:55.750Z,0.30
2023-02-13T21:28:22.529Z,0.10
2023-02-13T21:30:49.262Z,0.00
2023-02-13T21:33:16.095Z,0.73
2023-02-13T21:35:42.762Z,0.00
2023-02-13T21:38:09.522Z,0.38
2023-02-13T21:40:36.207Z,0.25
2023-02-13T21:43:02.984Z,0.08
2023-02-13T21:45:29.712Z,0.03
2023-02-13T21:47:56.714Z,0.00
2023-02-13T21:50:23.878Z,0.70
2023-02-13T21:52:50.722Z,0.45
2023-02-13T21:55:17.412Z,0.90
2023-02-13T21:57:44.195Z,1.75
2023-02-13T22:00:11.658Z,0.10
2023-02-13T22:02:41.714Z,1.17
2023-02-13T22:05:08.649Z,0.15
2023-02-13T22:07:55.378Z,0.20
2023-02-13T22:10:22.147Z,0.52
2023-02-13T22:12:53.008Z,6.55
2023-02-13T22:15:20.399Z,0.30
2023-02-13T22:17:47.082Z,1.35
2023-02-13T22:20:13.814Z,0.20
2023-02-13T22:22:40.527Z,0.17
2023-02-13T22:25:07.573Z,0.10
2023-02-13T22:27:34.575Z,0.03
2023-02-13T22:30:01.668Z,0.30
2023-02-13T22:32:28.456Z,1.58
2023-02-13T22:34:55.164Z,0.00
2023-02-13T22:37:21.888Z,0.13
2023-02-13T22:39:48.674Z,0.00
2023-02-13T22:42:15.394Z,0.20
2023-02-13T22:44:42.128Z,0.13
2023-02-13T22:47:08.844Z,0.30
2023-02-13T22:49:35.999Z,0.28
2023-02-13T22:52:02.881Z,0.10
2023-02-13T22:54:29.735Z,0.82
2023-02-13T22:56:56.477Z,0.17
2023-02-13T22:59:23.386Z,1.17
2023-02-13T23:01:50.025Z,0.55
2023-02-13T23:04:16.883Z,0.73
2023-02-13T23:06:43.660Z,0.05
2023-02-13T23:09:12.076Z,0.10
2023-02-13T23:11:57.493Z,0.20
2023-02-13T23:14:25.130Z,1.02
2023-02-13T23:17:10.543Z,2.53
2023-02-13T23:19:37.388Z,0.40
2023-02-13T23:22:04.169Z,0.20
2023-02-13T23:24:31.158Z,2.08
2023-02-13T23:26:58.834Z,1.08
2023-02-13T23:29:26.382Z,0.57
2023-02-13T23:31:53.292Z,0.50
2023-02-13T23:34:20.291Z,0.25
2023-02-13T23:36:47.221Z,1.30
2023-02-13T23:39:14.013Z,0.30
2023-02-13T23:41:40.712Z,0.00
2023-02-13T23:44:07.411Z,0.00
2023-02-13T23:46:34.181Z,0.60
2023-02-13T23:49:00.951Z,0.10
2023-02-13T23:51:27.632Z,0.20
2023-02-13T23:53:56.286Z,0.45
2023-02-13T23:56:24.841Z,0.00
2023-02-13T23:58:51.769Z,0.10
